Time;durP1;ratioP1;P1;durP2;ratioP2;P2;SDS_P1;SDS_P2;PMS_P1;PMS_P2;Temp;Humidity;BMP_temperature;BMP_pressure;BME280_temperature;BME280_humidity;BME280_pressure;Samples;Min_cycle;Max_cycle;Signal;HPM_P1;HPM_P2
2021/10/23 00:01:44;;;;;;;13.32;2.40;;;;;;;;;;4902352;29;20051;-90
2021/10/23 00:04:12;;;;;;;15.18;2.38;;;;;;;;;;4888100;29;20065;-87
2021/10/23 00:06:39;;;;;;;9.88;1.92;;;;;;;;;;4878242;29;20080;-88
2021/10/23 00:09:06;;;;;;;11.00;2.15;;;;;;;;;;4883456;29;20103;-86
2021/10/23 00:11:33;;;;;;;10.27;1.70;;;;;;;;;;4877271;29;20064;-87
2021/10/23 00:14:01;;;;;;;12.38;1.83;;;;;;;;;;4879120;29;20037;-87
2021/10/23 00:16:30;;;;;;;12.05;2.13;;;;;;;;;;4898658;29;20064;-89
2021/10/23 00:18:56;;;;;;;11.30;1.80;;;;;;;;;;4876496;29;20137;-87
2021/10/23 00:21:24;;;;;;;;;;;;;;;;;;4894744;29;20060;-90
2021/10/23 00:23:51;;;;;;;11.48;1.88;;;;;;;;;;4887703;29;19930;-87
2021/10/23 00:26:18;;;;;;;12.35;2.05;;;;;;;;;;4889145;29;20016;-90
2021/10/23 00:28:45;;;;;;;13.02;1.90;;;;;;;;;;4893973;29;20067;-88
2021/10/23 00:31:12;;;;;;;12.00;2.00;;;;;;;;;;4901894;29;20039;-85
2021/10/23 00:33:39;;;;;;;14.52;1.80;;;;;;;;;;4888176;29;20037;-88
2021/10/23 00:36:06;;;;;;;9.55;1.60;;;;;;;;;;4882224;29;20071;-88
2021/10/23 00:38:33;;;;;;;10.02;1.50;;;;;;;;;;4873170;29;20040;-90
2021/10/23 00:41:01;;;;;;;9.48;1.50;;;;;;;;;;4892866;29;20045;-87
2021/10/23 00:43:27;;;;;;;10.98;1.50;;;;;;;;;;4899217;29;20060;-90
2021/10/23 00:46:07;;;;;;;9.73;1.42;;;;;;;;;;4906147;29;20052;-89
2021/10/23 00:48:33;;;;;;;9.77;1.52;;;;;;;;;;4914342;29;20694;-91
2021/10/23 00:51:02;;;;;;;9.48;1.48;;;;;;;;;;4911884;29;20096;-87
2021/10/23 00:53:29;;;;;;;8.77;1.38;;;;;;;;;;4886172;29;20032;-88
2021/10/23 00:55:56;;;;;;;8.38;1.40;;;;;;;;;;4906990;29;20115;-85
2021/10/23 00:58:24;;;;;;;6.78;1.05;;;;;;;;;;4895347;29;20485;-88
2021/10/23 01:00:51;;;;;;;8.05;1.40;;;;;;;;;;4891829;29;20048;-87
2021/10/23 01:03:20;;;;;;;8.50;1.40;;;;;;;;;;4891343;29;20736;-88
2021/10/23 01:05:48;;;;;;;7.57;1.13;;;;;;;;;;4895079;29;20052;-90
2021/10/23 01:08:15;;;;;;;6.68;1.00;;;;;;;;;;4903458;29;20038;-88
2021/10/23 01:10:42;;;;;;;8.35;1.23;;;;;;;;;;4896488;29;20099;-90
2021/10/23 01:13:09;;;;;;;8.65;1.10;;;;;;;;;;4895156;29;20151;-90
2021/10/23 01:15:37;;;;;;;9.43;1.63;;;;;;;;;;4887313;29;20119;-94
2021/10/23 01:18:05;;;;;;;9.63;1.70;;;;;;;;;;4892964;29;20040;-87
2021/10/23 01:20:33;;;;;;;9.38;1.50;;;;;;;;;;4898324;29;20129;-92
2021/10/23 01:23:01;;;;;;;7.07;1.20;;;;;;;;;;4902245;29;20040;-87
2021/10/23 01:25:29;;;;;;;10.52;1.27;;;;;;;;;;4886761;29;20036;-87
2021/10/23 01:27:58;;;;;;;7.32;1.17;;;;;;;;;;4899965;29;20039;-88
2021/10/23 01:30:26;;;;;;;9.60;1.67;;;;;;;;;;4899689;29;20495;-91
2021/10/23 01:32:54;;;;;;;10.63;2.35;;;;;;;;;;4900690;29;20055;-90
2021/10/23 01:35:23;;;;;;;8.82;1.40;;;;;;;;;;4905157;29;20537;-90
2021/10/23 01:37:52;;;;;;;9.85;2.03;;;;;;;;;;4876512;29;20167;-89
2021/10/23 01:40:32;;;;;;;7.50;1.30;;;;;;;;;;4884202;29;20063;-89
2021/10/23 01:43:00;;;;;;;12.88;1.70;;;;;;;;;;4895340;29;20178;-88
2021/10/23 01:45:30;;;;;;;9.38;1.50;;;;;;;;;;4898873;29;20241;-89
2021/10/23 01:47:57;;;;;;;8.15;1.60;;;;;;;;;;4892964;29;20493;-88
2021/10/23 01:50:25;;;;;;;10.85;1.60;;;;;;;;;;4891753;29;20044;-89
2021/10/23 01:52:52;;;;;;;10.27;1.67;;;;;;;;;;4879382;29;20043;-88
2021/10/23 01:55:20;;;;;;;9.73;1.90;;;;;;;;;;4900935;29;20035;-91
2021/10/23 01:57:48;;;;;;;13.18;2.90;;;;;;;;;;4902423;29;20294;-91
2021/10/23 02:00:16;;;;;;;9.60;1.58;;;;;;;;;;4899994;29;20045;-89
2021/10/23 02:02:43;;;;;;;11.15;1.52;;;;;;;;;;4893201;29;20044;-89
2021/10/23 02:05:10;;;;;;;10.50;1.65;;;;;;;;;;4896216;29;20242;-89
2021/10/23 02:07:37;;;;;;;11.60;1.75;;;;;;;;;;4892068;29;20095;-90
2021/10/23 02:10:05;;;;;;;9.48;1.73;;;;;;;;;;4894379;29;20084;-90
2021/10/23 02:12:33;;;;;;;11.73;1.73;;;;;;;;;;4874062;29;20029;-90
2021/10/23 02:15:02;;;;;;;9.25;1.63;;;;;;;;;;4879983;29;20068;-91
2021/10/23 02:17:28;;;;;;;10.73;1.70;;;;;;;;;;4877926;29;20769;-89
2021/10/23 02:19:56;;;;;;;10.30;1.50;;;;;;;;;;4872212;29;20077;-89
2021/10/23 02:22:25;;;;;;;12.50;2.00;;;;;;;;;;4882674;29;20036;-89
2021/10/23 02:24:52;;;;;;;10.88;1.63;;;;;;;;;;4863929;29;20033;-89
2021/10/23 02:27:20;;;;;;;11.07;1.65;;;;;;;;;;4873936;29;20152;-90
2021/10/23 02:29:47;;;;;;;11.63;1.63;;;;;;;;;;4879487;29;20041;-89
2021/10/23 02:32:15;;;;;;;10.20;1.63;;;;;;;;;;4883146;29;20053;-89
2021/10/23 02:34:42;;;;;;;11.70;1.80;;;;;;;;;;4846591;29;20040;-89
2021/10/23 02:37:10;;;;;;;7.93;1.17;;;;;;;;;;4885546;29;20040;-89
2021/10/23 02:39:39;;;;;;;11.90;1.70;;;;;;;;;;4874730;29;20048;-88
2021/10/23 02:42:06;;;;;;;9.80;1.60;;;;;;;;;;4897461;29;20932;-88
2021/10/23 02:44:33;;;;;;;11.07;1.60;;;;;;;;;;4875756;29;20047;-89
2021/10/23 02:46:59;;;;;;;8.85;1.30;;;;;;;;;;4875962;29;20189;-89
2021/10/23 02:49:25;;;;;;;12.07;1.50;;;;;;;;;;4889205;29;20041;-89
2021/10/23 02:51:52;;;;;;;10.55;1.75;;;;;;;;;;4876561;29;20041;-89
2021/10/23 02:54:20;;;;;;;7.45;1.38;;;;;;;;;;4886307;29;20944;-88
2021/10/23 02:56:47;;;;;;;10.50;1.60;;;;;;;;;;4858830;29;20036;-89
2021/10/23 02:59:15;;;;;;;8.82;1.48;;;;;;;;;;4879606;29;20044;-91
2021/10/23 03:01:43;;;;;;;11.73;1.50;;;;;;;;;;4867296;29;20112;-89
2021/10/23 03:04:10;;;;;;;8.52;1.40;;;;;;;;;;4863270;29;20828;-89
2021/10/23 03:06:38;;;;;;;23.85;1.98;;;;;;;;;;4875442;29;20044;-89
2021/10/23 03:09:05;;;;;;;11.95;1.45;;;;;;;;;;4875328;28;20051;-90
2021/10/23 03:11:33;;;;;;;10.20;1.40;;;;;;;;;;4887021;29;20032;-91
2021/10/23 03:13:59;;;;;;;10.07;1.38;;;;;;;;;;4903625;29;20100;-91
2021/10/23 03:16:26;;;;;;;7.90;1.42;;;;;;;;;;4896119;29;20048;-92
2021/10/23 03:18:53;;;;;;;11.13;1.42;;;;;;;;;;4892492;29;20052;-91
2021/10/23 03:21:20;;;;;;;10.25;1.48;;;;;;;;;;4882051;29;20037;-90
2021/10/23 03:23:48;;;;;;;11.68;1.80;;;;;;;;;;4886331;29;20098;-91
2021/10/23 03:26:16;;;;;;;13.15;1.50;;;;;;;;;;4880742;29;20041;-91
2021/10/23 03:28:44;;;;;;;8.32;1.65;;;;;;;;;;4904119;29;20056;-90
2021/10/23 03:31:10;;;;;;;10.80;1.83;;;;;;;;;;4889953;29;20370;-91
2021/10/23 03:33:37;;;;;;;;;;;;;;;;;;4880222;29;20048;-91
2021/10/23 03:36:05;;;;;;;12.55;1.40;;;;;;;;;;4894593;29;19954;-90
2021/10/23 03:38:32;;;;;;;10.75;1.30;;;;;;;;;;4900136;29;20052;-91
2021/10/23 03:40:58;;;;;;;7.45;1.55;;;;;;;;;;4906480;29;20338;-90
2021/10/23 03:43:25;;;;;;;10.85;1.45;;;;;;;;;;4858117;29;1342271;-89
2021/10/23 03:45:51;;;;;;;7.07;1.33;;;;;;;;;;4875539;29;20036;-89
2021/10/23 03:48:19;;;;;;;10.13;1.50;;;;;;;;;;4893712;29;20795;-89
2021/10/23 03:50:46;;;;;;;7.53;1.20;;;;;;;;;;4886368;29;20100;-90
2021/10/23 03:53:21;;;;;;;9.95;1.55;;;;;;;;;;4889714;29;20446;-90
2021/10/23 03:55:48;;;;;;;8.85;1.33;;;;;;;;;;4891440;29;20044;-91
2021/10/23 03:58:15;;;;;;;7.55;1.30;;;;;;;;;;4897801;29;20073;-89
2021/10/23 04:00:41;;;;;;;9.55;1.38;;;;;;;;;;4887941;29;20036;-89
2021/10/23 04:03:09;;;;;;;9.88;1.42;;;;;;;;;;4890698;29;20076;-90
2021/10/23 04:05:36;;;;;;;12.48;1.70;;;;;;;;;;4886448;28;20048;-90
2021/10/23 04:08:03;;;;;;;10.77;1.45;;;;;;;;;;4900515;29;20104;-90
2021/10/23 04:10:29;;;;;;;8.80;1.40;;;;;;;;;;4900936;29;20087;-90
2021/10/23 04:12:56;;;;;;;;;;;;;;;;;;4893173;29;20040;-90
2021/10/23 04:15:22;;;;;;;12.13;1.60;;;;;;;;;;4881897;29;20735;-90
2021/10/23 04:17:51;;;;;;;10.27;1.58;;;;;;;;;;4885488;29;20693;-90
2021/10/23 04:20:18;;;;;;;9.07;1.40;;;;;;;;;;4883711;29;20108;-90
2021/10/23 04:22:46;;;;;;;11.90;1.73;;;;;;;;;;4881298;29;20063;-90
2021/10/23 04:25:13;;;;;;;10.93;1.52;;;;;;;;;;4898554;29;20031;-89
2021/10/23 04:27:39;;;;;;;12.60;1.70;;;;;;;;;;4891925;29;20043;-89
2021/10/23 04:30:06;;;;;;;11.23;2.00;;;;;;;;;;4912419;29;20044;-90
2021/10/23 04:32:32;;;;;;;9.45;1.50;;;;;;;;;;4907787;29;20051;-91
2021/10/23 04:35:01;;;;;;;10.10;1.67;;;;;;;;;;4915249;28;20057;-90
2021/10/23 04:37:28;;;;;;;9.98;1.58;;;;;;;;;;4890814;29;20112;-91
2021/10/23 04:39:54;;;;;;;8.43;1.65;;;;;;;;;;4887174;29;20108;-90
2021/10/23 04:42:21;;;;;;;9.77;1.55;;;;;;;;;;4916901;29;20047;-90
2021/10/23 04:44:48;;;;;;;9.95;1.63;;;;;;;;;;4906240;29;20134;-90
2021/10/23 04:47:15;;;;;;;15.15;2.17;;;;;;;;;;4890675;29;20029;-91
2021/10/23 04:49:41;;;;;;;13.15;1.90;;;;;;;;;;4879365;29;20056;-89
2021/10/23 04:52:07;;;;;;;10.07;1.48;;;;;;;;;;4871591;29;20024;-89
2021/10/23 04:54:35;;;;;;;13.45;1.80;;;;;;;;;;4879858;29;20033;-87
2021/10/23 04:57:02;;;;;;;12.73;1.85;;;;;;;;;;4864313;29;20041;-88
2021/10/23 04:59:29;;;;;;;8.70;1.65;;;;;;;;;;4855817;29;20033;-88
2021/10/23 05:01:55;;;;;;;10.75;1.77;;;;;;;;;;4856866;29;20068;-88
2021/10/23 05:04:22;;;;;;;15.23;1.90;;;;;;;;;;4854933;29;20105;-88
2021/10/23 05:06:49;;;;;;;11.65;1.90;;;;;;;;;;4855706;29;20698;-88
2021/10/23 05:09:16;;;;;;;11.43;1.90;;;;;;;;;;4856678;29;20052;-88
2021/10/23 05:11:42;;;;;;;10.50;1.60;;;;;;;;;;4852907;29;20493;-88
2021/10/23 05:14:09;;;;;;;11.43;1.75;;;;;;;;;;4874477;29;20510;-88
2021/10/23 05:16:37;;;;;;;10.07;1.77;;;;;;;;;;4886827;29;20654;-89
2021/10/23 05:19:04;;;;;;;17.27;2.40;;;;;;;;;;4896714;29;20040;-89
2021/10/23 05:21:31;;;;;;;11.63;1.73;;;;;;;;;;4876155;29;20562;-90
2021/10/23 05:23:58;;;;;;;10.95;1.67;;;;;;;;;;4874444;29;20123;-87
2021/10/23 05:26:26;;;;;;;11.10;2.00;;;;;;;;;;4874460;29;20318;-87
2021/10/23 05:28:53;;;;;;;15.02;1.90;;;;;;;;;;4883706;29;20047;-87
2021/10/23 05:31:20;;;;;;;13.82;2.47;;;;;;;;;;4873525;29;20047;-88
2021/10/23 05:33:47;;;;;;;12.98;2.00;;;;;;;;;;4871402;29;20033;-88
2021/10/23 05:36:13;;;;;;;;;;;;;;;;;;4870431;29;20040;-88
2021/10/23 05:38:39;;;;;;;12.98;1.85;;;;;;;;;;4876877;29;20378;-88
2021/10/23 05:41:06;;;;;;;14.55;2.70;;;;;;;;;;4867756;29;20541;-87
2021/10/23 05:43:33;;;;;;;11.90;2.28;;;;;;;;;;4854339;29;20399;-88
2021/10/23 05:46:00;;;;;;;14.10;2.15;;;;;;;;;;4873080;29;20057;-89
2021/10/23 05:48:27;;;;;;;13.35;2.20;;;;;;;;;;4888639;29;20913;-88
2021/10/23 05:50:54;;;;;;;15.60;2.00;;;;;;;;;;4860095;29;20037;-88
2021/10/23 05:53:21;;;;;;;14.40;2.40;;;;;;;;;;4855204;29;20041;-88
2021/10/23 05:55:48;;;;;;;15.65;2.17;;;;;;;;;;4856705;29;20025;-88
2021/10/23 05:58:15;;;;;;;16.23;2.35;;;;;;;;;;4895691;29;20133;-88
2021/10/23 06:00:49;;;;;;;13.98;2.15;;;;;;;;;;4891397;29;20036;-88
2021/10/23 06:03:23;;;;;;;18.67;2.55;;;;;;;;;;4885354;29;20104;-88
2021/10/23 06:05:53;;;;;;;14.82;2.28;;;;;;;;;;4879403;29;20044;-88
2021/10/23 06:08:20;;;;;;;16.65;2.53;;;;;;;;;;4876205;29;20033;-88
2021/10/23 06:10:47;;;;;;;14.13;2.10;;;;;;;;;;4875897;29;20029;-88
2021/10/23 06:13:15;;;;;;;15.55;2.45;;;;;;;;;;4898310;29;20786;-90
2021/10/23 06:15:42;;;;;;;13.73;2.15;;;;;;;;;;4880617;29;20115;-87
2021/10/23 06:18:09;;;;;;;12.68;2.25;;;;;;;;;;4893427;29;20041;-90
2021/10/23 06:20:36;;;;;;;16.40;2.28;;;;;;;;;;4870014;29;20033;-88
2021/10/23 06:23:03;;;;;;;12.23;2.35;;;;;;;;;;4890916;29;20088;-87
2021/10/23 06:25:31;;;;;;;17.75;2.90;;;;;;;;;;4895893;29;20041;-89
2021/10/23 06:27:58;;;;;;;14.07;2.53;;;;;;;;;;4898908;29;20043;-89
2021/10/23 06:30:25;;;;;;;13.57;2.30;;;;;;;;;;4896673;29;20047;-87
2021/10/23 06:32:54;;;;;;;11.38;2.17;;;;;;;;;;4885809;29;20099;-86
2021/10/23 06:35:21;;;;;;;12.65;2.25;;;;;;;;;;4888387;29;20063;-86
2021/10/23 06:37:49;;;;;;;20.65;3.05;;;;;;;;;;4893346;29;20259;-87
2021/10/23 06:40:16;;;;;;;18.60;2.80;;;;;;;;;;4897523;29;20128;-86
2021/10/23 06:42:44;;;;;;;14.23;2.22;;;;;;;;;;4894227;29;20183;-86
2021/10/23 06:45:13;;;;;;;16.45;2.38;;;;;;;;;;4913084;29;20219;-86
2021/10/23 06:47:40;;;;;;;14.27;2.42;;;;;;;;;;4929262;28;20070;-86
2021/10/23 06:50:06;;;;;;;;;;;;;;;;;;4920199;28;20043;-87
2021/10/23 06:52:34;;;;;;;17.15;2.85;;;;;;;;;;4926869;28;20201;-86
2021/10/23 06:55:01;;;;;;;16.33;2.28;;;;;;;;;;4922215;29;20046;-87
2021/10/23 06:57:28;;;;;;;18.30;2.53;;;;;;;;;;4921090;28;20503;-88
2021/10/23 06:59:56;;;;;;;15.77;2.78;;;;;;;;;;4920746;29;20024;-88
2021/10/23 07:02:24;;;;;;;15.75;2.80;;;;;;;;;;4929255;29;20055;-88
2021/10/23 07:04:51;;;;;;;15.73;3.20;;;;;;;;;;4918638;29;20024;-86
2021/10/23 07:07:18;;;;;;;12.30;2.60;;;;;;;;;;4921664;29;20027;-86
2021/10/23 07:09:45;;;;;;;13.93;2.42;;;;;;;;;;4910877;29;20037;-86
2021/10/23 07:12:12;;;;;;;16.42;3.40;;;;;;;;;;4915318;28;20036;-87
2021/10/23 07:14:40;;;;;;;15.93;2.92;;;;;;;;;;4909786;29;20032;-83
2021/10/23 07:17:07;;;;;;;20.45;4.10;;;;;;;;;;4910527;28;20040;-85
2021/10/23 07:19:36;;;;;;;19.35;2.67;;;;;;;;;;4912248;28;20174;-84
2021/10/23 07:22:04;;;;;;;14.88;2.53;;;;;;;;;;4903226;29;20047;-87
2021/10/23 07:24:31;;;;;;;15.05;2.35;;;;;;;;;;4912451;29;20376;-86
2021/10/23 07:26:59;;;;;;;16.23;3.03;;;;;;;;;;4910912;28;20142;-84
2021/10/23 07:29:26;;;;;;;18.45;3.17;;;;;;;;;;4905453;29;20047;-84
2021/10/23 07:31:52;;;;;;;17.63;2.85;;;;;;;;;;4905998;28;20031;-87
2021/10/23 07:34:19;;;;;;;18.02;2.97;;;;;;;;;;4907930;29;20541;-87
2021/10/23 07:36:46;;;;;;;14.05;2.58;;;;;;;;;;4879764;29;20522;-83
2021/10/23 07:39:14;;;;;;;13.77;2.63;;;;;;;;;;4904200;29;20039;-83
2021/10/23 07:41:41;;;;;;;14.23;2.50;;;;;;;;;;4911794;28;21058;-86
2021/10/23 07:44:12;;;;;;;17.40;2.53;;;;;;;;;;4916396;29;20052;-84
2021/10/23 07:46:43;;;;;;;15.82;3.10;;;;;;;;;;4908358;28;20483;-84
2021/10/23 07:49:11;;;;;;;14.00;2.10;;;;;;;;;;4911645;29;20051;-85
2021/10/23 07:51:39;;;;;;;17.90;2.40;;;;;;;;;;4908812;28;20059;-84
2021/10/23 07:54:09;;;;;;;13.82;2.38;;;;;;;;;;4911144;29;20453;-83
2021/10/23 07:56:39;;;;;;;13.32;2.35;;;;;;;;;;4892634;29;20059;-86
2021/10/23 07:59:06;;;;;;;18.23;3.38;;;;;;;;;;4918837;28;20040;-85
2021/10/23 08:01:34;;;;;;;16.33;2.97;;;;;;;;;;4913367;29;20119;-85
2021/10/23 08:04:00;;;;;;;17.67;2.85;;;;;;;;;;4917060;29;20040;-85
2021/10/23 08:06:27;;;;;;;;;;;;;;;;;;4909776;28;20031;-84
2021/10/23 08:11:49;;;;;;;23.67;3.55;;;;;;;;;;4897857;29;20051;-86
2021/10/23 08:14:15;;;;;;;;;;;;;;;;;;4899515;29;20036;-82
2021/10/23 08:16:42;;;;;;;13.38;2.42;;;;;;;;;;4901255;28;19921;-82
2021/10/23 08:19:08;;;;;;;15.85;3.05;;;;;;;;;;4886869;29;20028;-82
2021/10/23 08:21:36;;;;;;;16.58;5.20;;;;;;;;;;4889365;29;20039;-83
2021/10/23 08:24:02;;;;;;;15.43;3.88;;;;;;;;;;4889094;29;20539;-82
2021/10/23 08:26:32;;;;;;;18.13;5.10;;;;;;;;;;4879964;29;20032;-81
2021/10/23 08:28:58;;;;;;;15.32;4.10;;;;;;;;;;4908789;29;20908;-82
2021/10/23 08:31:24;;;;;;;;;;;;;;;;;;4883077;28;20031;-82
2021/10/23 08:33:51;;;;;;;16.50;4.10;;;;;;;;;;4878094;29;20003;-81
2021/10/23 08:36:17;;;;;;;13.80;4.03;;;;;;;;;;4883447;29;20048;-81
2021/10/23 08:38:43;;;;;;;;;;;;;;;;;;4872103;29;20075;-82
2021/10/23 08:41:11;;;;;;;15.95;5.30;;;;;;;;;;4887114;29;20425;-81
2021/10/23 08:43:40;;;;;;;15.52;4.72;;;;;;;;;;4877121;29;20073;-83
2021/10/23 08:46:09;;;;;;;16.77;5.82;;;;;;;;;;4866520;29;20068;-81
2021/10/23 08:48:36;;;;;;;22.35;6.00;;;;;;;;;;4875490;29;20289;-82
2021/10/23 08:51:02;;;;;;;18.65;4.70;;;;;;;;;;4864381;29;20028;-81
2021/10/23 08:53:29;;;;;;;14.05;3.97;;;;;;;;;;4883219;29;20040;-81
2021/10/23 08:55:57;;;;;;;28.67;4.60;;;;;;;;;;4870949;29;20032;-81
2021/10/23 08:58:24;;;;;;;19.45;8.77;;;;;;;;;;4876290;29;20024;-82
2021/10/23 09:00:50;;;;;;;19.35;6.63;;;;;;;;;;4885174;28;22530;-83
2021/10/23 09:03:17;;;;;;;16.45;4.03;;;;;;;;;;4874903;29;20036;-84
2021/10/23 09:05:43;;;;;;;19.25;8.93;;;;;;;;;;4872773;29;20040;-81
2021/10/23 09:08:16;;;;;;;15.50;5.18;;;;;;;;;;4868284;29;20224;-81
2021/10/23 09:10:47;;;;;;;14.07;3.10;;;;;;;;;;4860795;29;20040;-81
2021/10/23 09:13:13;;;;;;;19.65;5.70;;;;;;;;;;4883311;29;20020;-81
2021/10/23 09:15:41;;;;;;;14.98;4.50;;;;;;;;;;4871372;29;20037;-80
2021/10/23 09:18:08;;;;;;;20.23;8.18;;;;;;;;;;4873038;29;20151;-80
2021/10/23 09:20:41;;;;;;;15.68;5.63;;;;;;;;;;4858152;29;20116;-79
2021/10/23 09:23:15;;;;;;;16.40;5.55;;;;;;;;;;4859198;29;20626;-80
2021/10/23 09:25:42;;;;;;;16.13;6.85;;;;;;;;;;4862683;29;20082;-79
2021/10/23 09:28:12;;;;;;;17.80;8.15;;;;;;;;;;4879163;29;20056;-81
2021/10/23 09:30:46;;;;;;;19.65;9.40;;;;;;;;;;4871777;28;20060;-79
2021/10/23 09:33:23;;;;;;;20.40;9.15;;;;;;;;;;4881846;29;20132;-82
2021/10/23 09:35:55;;;;;;;18.08;6.38;;;;;;;;;;4871621;29;20760;-82
2021/10/23 09:38:32;;;;;;;19.60;7.70;;;;;;;;;;4874604;29;20039;-81
2021/10/23 09:41:11;;;;;;;24.77;12.68;;;;;;;;;;4879977;29;20622;-80
2021/10/23 09:43:37;;;;;;;15.95;7.20;;;;;;;;;;4872273;29;20099;-80
2021/10/23 09:46:04;;;;;;;18.90;7.20;;;;;;;;;;4864937;29;20043;-83
2021/10/23 09:48:35;;;;;;;18.38;8.35;;;;;;;;;;4860423;29;20047;-80
2021/10/23 09:51:16;;;;;;;14.00;4.55;;;;;;;;;;4874871;28;20032;-80
2021/10/23 09:53:43;;;;;;;13.32;3.58;;;;;;;;;;4871591;29;20518;-81
2021/10/23 09:56:14;;;;;;;12.57;3.03;;;;;;;;;;4861641;28;20040;-81
2021/10/23 09:58:51;;;;;;;14.35;3.00;;;;;;;;;;4862592;29;20589;-81
2021/10/23 10:01:18;;;;;;;13.23;2.97;;;;;;;;;;4881761;29;20043;-81
2021/10/23 10:03:44;;;;;;;14.35;4.47;;;;;;;;;;4858689;29;20044;-80
2021/10/23 10:06:11;;;;;;;12.02;3.58;;;;;;;;;;4867175;29;20094;-80
2021/10/23 10:08:38;;;;;;;18.25;3.63;;;;;;;;;;4861549;29;20589;-81
2021/10/23 10:11:04;;;;;;;14.02;5.13;;;;;;;;;;4864396;28;20033;-81
2021/10/23 10:13:36;;;;;;;15.93;6.00;;;;;;;;;;4861655;29;20049;-89
2021/10/23 10:16:03;;;;;;;18.38;6.93;;;;;;;;;;4868087;29;20388;-90
2021/10/23 10:18:39;;;;;;;17.85;6.85;;;;;;;;;;4874266;29;20527;-90
2021/10/23 10:21:10;;;;;;;19.73;6.40;;;;;;;;;;4887267;29;20040;-91
2021/10/23 10:23:38;;;;;;;16.42;8.52;;;;;;;;;;4885757;29;20267;-88
2021/10/23 10:26:23;;;;;;;17.95;6.68;;;;;;;;;;4886403;29;20131;-86
2021/10/23 10:29:08;;;;;;;17.60;4.75;;;;;;;;;;4868171;29;20092;-88
2021/10/23 10:54:38;;;;;;;12.93;4.03;;;;;;;;;;4871947;29;20042;-84
2021/10/23 11:36:40;;;;;;;;;;;;;;;;;;;;;
2021/10/23 11:59:01;;;;;;;;;;;;;;;;;;;;;
2021/10/23 12:05:29;;;;;;;12.52;4.07;;;;;;;;;;4655424;30;20146;-84
2021/10/23 12:18:07;;;;;;;;;;;;;;;;;;;;;
2021/10/23 12:20:35;;;;;;;12.30;2.65;;;;;;;;;;4657177;30;20052;-85
2021/10/23 12:23:34;;;;;;;;;;;;;;;;;;;;;
2021/10/23 12:27:36;;;;;;;;;;;;;;;;;;;;;
2021/10/23 12:33:09;;;;;;;10.43;2.25;;;;;;;;;;4756486;29;20127;-84
2021/10/23 12:35:42;;;;;;;9.50;2.38;;;;;;;;;;4779714;29;20781;-86
2021/10/23 12:39:01;;;;;;;;;;;;;;;;;;;;;
2021/10/23 12:47:48;;;;;;;10.85;2.38;;;;;;;;;;4759348;29;20055;-84
2021/10/23 12:50:44;;;;;;;11.15;3.05;;;;;;;;;;4783091;29;20090;-85
2021/10/23 12:53:28;;;;;;;12.55;4.30;;;;;;;;;;4794181;29;20056;-90
2021/10/23 12:59:09;;;;;;;10.52;2.20;;;;;;;;;;4798047;29;20061;-83
2021/10/23 13:01:41;;;;;;;12.90;2.55;;;;;;;;;;4796611;29;20084;-83
2021/10/23 13:04:10;;;;;;;12.32;2.85;;;;;;;;;;4808017;29;20038;-85
2021/10/23 13:06:41;;;;;;;10.20;2.80;;;;;;;;;;4808451;29;20042;-84
2021/10/23 13:09:08;;;;;;;11.40;2.97;;;;;;;;;;4800156;29;20086;-83
2021/10/23 13:11:39;;;;;;;10.32;2.55;;;;;;;;;;4797254;29;20571;-83
2021/10/23 13:14:18;;;;;;;11.73;2.75;;;;;;;;;;4800875;29;20053;-86
2021/10/23 13:16:46;;;;;;;11.80;2.70;;;;;;;;;;4785739;29;20133;-83
2021/10/23 13:19:15;;;;;;;14.43;4.00;;;;;;;;;;4793139;29;20148;-84
2021/10/23 13:21:47;;;;;;;12.05;4.22;;;;;;;;;;4801716;29;20043;-84
2021/10/23 13:24:17;;;;;;;13.40;4.10;;;;;;;;;;4800001;29;20058;-84
2021/10/23 13:27:17;;;;;;;12.57;3.60;;;;;;;;;;4807070;29;20667;-83
2021/10/23 13:29:44;;;;;;;12.80;3.92;;;;;;;;;;4784621;29;20140;-84
2021/10/23 13:32:10;;;;;;;14.95;4.15;;;;;;;;;;4802869;29;20071;-85
2021/10/23 13:34:40;;;;;;;15.25;3.67;;;;;;;;;;4800986;29;20094;-83
2021/10/23 13:37:06;;;;;;;9.55;3.13;;;;;;;;;;4850976;29;20139;-84
2021/10/23 13:39:41;;;;;;;9.88;2.97;;;;;;;;;;4870455;28;20052;-84
2021/10/23 13:42:10;;;;;;;11.50;2.85;;;;;;;;;;4887050;29;20040;-84
2021/10/23 13:44:36;;;;;;;11.95;2.95;;;;;;;;;;4892512;28;20033;-83
2021/10/23 13:47:08;;;;;;;11.20;2.90;;;;;;;;;;4890150;28;20047;-85
2021/10/23 13:49:40;;;;;;;9.95;2.55;;;;;;;;;;4886937;29;20032;-85
2021/10/23 13:52:07;;;;;;;10.25;2.15;;;;;;;;;;4877114;28;20167;-84
2021/10/23 13:54:34;;;;;;;8.43;2.15;;;;;;;;;;4895468;29;20083;-83
2021/10/23 13:57:00;;;;;;;10.98;2.28;;;;;;;;;;4897072;28;20036;-85
2021/10/23 13:59:30;;;;;;;9.00;2.20;;;;;;;;;;4886322;29;20127;-82
2021/10/23 14:01:59;;;;;;;10.70;2.05;;;;;;;;;;4883474;29;20039;-84
2021/10/23 14:04:42;;;;;;;8.30;1.98;;;;;;;;;;4886587;29;20557;-83
2021/10/23 14:07:09;;;;;;;9.52;2.00;;;;;;;;;;4889455;29;20047;-83
2021/10/23 14:09:38;;;;;;;11.45;2.15;;;;;;;;;;4880214;28;20096;-84
2021/10/23 14:12:05;;;;;;;9.13;2.30;;;;;;;;;;4878304;29;20082;-84
2021/10/23 14:14:32;;;;;;;8.95;2.30;;;;;;;;;;4895380;28;20032;-84
2021/10/23 14:16:58;;;;;;;7.78;2.28;;;;;;;;;;4896986;28;20339;-83
2021/10/23 14:19:25;;;;;;;9.35;1.98;;;;;;;;;;4904497;29;20082;-84
2021/10/23 14:21:52;;;;;;;9.70;2.38;;;;;;;;;;4894116;29;20070;-83
2021/10/23 14:24:21;;;;;;;11.55;2.20;;;;;;;;;;4892918;29;20057;-84
2021/10/23 14:27:02;;;;;;;10.77;2.17;;;;;;;;;;4889099;28;20040;-83
2021/10/23 14:32:25;;;;;;;9.57;2.05;;;;;;;;;;4887760;29;20056;-82
2021/10/23 14:34:52;;;;;;;10.02;1.80;;;;;;;;;;4870468;29;20078;-83
2021/10/23 14:37:21;;;;;;;7.55;1.50;;;;;;;;;;4866364;29;20103;-82
2021/10/23 14:39:57;;;;;;;10.82;1.90;;;;;;;;;;4883520;29;20054;-83
2021/10/23 14:42:26;;;;;;;6.65;1.65;;;;;;;;;;4884523;29;20032;-83
2021/10/23 14:44:53;;;;;;;8.82;1.67;;;;;;;;;;4863542;29;20103;-83
2021/10/23 14:47:23;;;;;;;7.45;1.60;;;;;;;;;;4878117;29;20123;-84
2021/10/23 14:50:15;;;;;;;8.25;1.80;;;;;;;;;;4864677;28;20779;-84
2021/10/23 14:52:41;;;;;;;7.03;1.80;;;;;;;;;;4877248;29;20074;-85
2021/10/23 14:55:08;;;;;;;16.67;8.82;;;;;;;;;;4874501;29;20058;-84
2021/10/23 14:57:34;;;;;;;6.93;2.03;;;;;;;;;;4860483;29;20080;-84
2021/10/23 15:00:01;;;;;;;7.40;1.50;;;;;;;;;;4891627;29;20038;-84
2021/10/23 15:02:27;;;;;;;9.27;1.88;;;;;;;;;;4885570;29;20060;-84
2021/10/23 15:04:54;;;;;;;9.77;1.63;;;;;;;;;;4873674;28;20510;-84
2021/10/23 15:07:20;;;;;;;9.73;1.90;;;;;;;;;;4879543;29;20039;-84
2021/10/23 15:09:46;;;;;;;8.93;1.70;;;;;;;;;;4860945;29;20032;-84
2021/10/23 15:12:15;;;;;;;6.72;1.48;;;;;;;;;;4879908;29;20154;-84
2021/10/23 15:14:44;;;;;;;8.50;1.90;;;;;;;;;;4869869;29;20032;-84
2021/10/23 15:17:11;;;;;;;7.95;1.60;;;;;;;;;;4881149;28;20131;-85
2021/10/23 15:19:37;;;;;;;7.47;1.50;;;;;;;;;;4887869;29;20037;-85
2021/10/23 15:22:04;;;;;;;6.93;1.30;;;;;;;;;;4870896;28;20483;-84
2021/10/23 15:24:32;;;;;;;8.55;1.63;;;;;;;;;;4894190;29;20040;-85
2021/10/23 15:27:00;;;;;;;9.10;1.70;;;;;;;;;;4891563;28;20054;-86
2021/10/23 15:29:26;;;;;;;4.72;1.20;;;;;;;;;;4891273;29;20040;-84
2021/10/23 15:32:00;;;;;;;8.35;1.58;;;;;;;;;;4910553;28;20516;-84
2021/10/23 15:34:40;;;;;;;9.63;1.88;;;;;;;;;;4891189;28;20031;-85
2021/10/23 15:37:10;;;;;;;6.80;1.30;;;;;;;;;;4886222;29;20040;-85
2021/10/23 15:39:48;;;;;;;7.97;1.63;;;;;;;;;;4892975;28;20047;-85
2021/10/23 15:42:40;;;;;;;7.35;1.63;;;;;;;;;;4902306;29;20502;-85
2021/10/23 15:45:06;;;;;;;8.32;1.55;;;;;;;;;;4902851;28;20043;-85
2021/10/23 15:47:36;;;;;;;8.68;1.75;;;;;;;;;;4901897;29;20448;-85
2021/10/23 15:50:03;;;;;;;8.02;1.90;;;;;;;;;;4891192;28;20044;-85
2021/10/23 15:52:32;;;;;;;10.57;2.25;;;;;;;;;;4887619;29;20031;-85
2021/10/23 15:54:59;;;;;;;10.15;2.28;;;;;;;;;;4890464;28;20044;-84
2021/10/23 15:57:26;;;;;;;8.18;2.13;;;;;;;;;;4888531;29;20054;-84
2021/10/23 15:59:52;;;;;;;10.32;3.10;;;;;;;;;;4882267;29;20059;-84
2021/10/23 16:02:18;;;;;;;11.65;2.88;;;;;;;;;;4888682;29;20086;-84
2021/10/23 16:04:46;;;;;;;9.95;2.65;;;;;;;;;;4888927;29;20035;-85
2021/10/23 16:07:12;;;;;;;11.57;2.92;;;;;;;;;;4892563;28;20896;-83
2021/10/23 16:09:38;;;;;;;10.00;2.85;;;;;;;;;;4880896;29;20043;-85
2021/10/23 16:12:05;;;;;;;11.32;3.10;;;;;;;;;;4906821;28;20040;-83
2021/10/23 16:14:33;;;;;;;12.30;2.70;;;;;;;;;;4892950;28;20525;-85
2021/10/23 16:17:01;;;;;;;10.77;2.97;;;;;;;;;;4901512;28;20226;-83
2021/10/23 16:19:30;;;;;;;12.20;2.90;;;;;;;;;;4903404;29;20039;-82
2021/10/23 16:21:59;;;;;;;12.68;3.17;;;;;;;;;;4884637;28;20035;-84
2021/10/23 16:24:26;;;;;;;14.02;5.25;;;;;;;;;;4889892;29;20048;-83
2021/10/23 16:26:52;;;;;;;18.50;7.57;;;;;;;;;;4885764;28;20070;-83
2021/10/23 16:29:19;;;;;;;13.18;4.30;;;;;;;;;;4901144;29;20040;-84
2021/10/23 16:31:45;;;;;;;16.60;7.00;;;;;;;;;;4889914;29;20034;-83
2021/10/23 16:34:11;;;;;;;10.90;2.97;;;;;;;;;;4888878;29;20847;-83
2021/10/23 16:36:38;;;;;;;12.77;3.40;;;;;;;;;;4889952;28;20092;-83
2021/10/23 16:39:05;;;;;;;10.43;2.60;;;;;;;;;;4873130;29;20632;-85
2021/10/23 16:41:31;;;;;;;12.95;3.65;;;;;;;;;;4859572;29;20045;-83
2021/10/23 16:43:58;;;;;;;13.88;4.47;;;;;;;;;;4871194;29;20082;-84
2021/10/23 16:46:25;;;;;;;14.18;3.53;;;;;;;;;;4863633;29;20051;-84
2021/10/23 16:48:52;;;;;;;14.18;3.42;;;;;;;;;;4862940;29;20538;-83